Time;durP1;ratioP1;P1;durP2;ratioP2;P2;SDS_P1;SDS_P2;PMS_P1;PMS_P2;Temp;Humidity;BMP_temperature;BMP_pressure;BME280_temperature;BME280_humidity;BME280_pressure;Samples;Min_cycle;Max_cycle;Signal;HPM_P1;HPM_P2
2020/12/23 00:01:56;;;;;;;4.27;2.00;;;12.40;99.90;;;;;;5110583;28;20169;-81
2020/12/23 00:04:21;;;;;;;1.37;1.27;;;12.50;99.90;;;;;;5093480;28;20169;-81
2020/12/23 00:06:51;;;;;;;1.83;1.73;;;12.40;99.90;;;;;;5110189;28;20460;-82
2020/12/23 00:09:17;;;;;;;1.77;1.63;;;12.40;99.90;;;;;;5110176;28;20461;-81
2020/12/23 00:11:43;;;;;;;1.93;1.63;;;12.50;99.90;;;;;;5111709;28;20368;-81
2020/12/23 00:14:10;;;;;;;1.67;1.57;;;12.50;99.90;;;;;;5060128;28;20649;-82
2020/12/23 00:16:35;;;;;;;3.83;1.87;;;12.40;99.90;;;;;;5117340;28;20193;-79
2020/12/23 00:19:01;;;;;;;1.90;1.80;;;12.40;99.90;;;;;;5117618;28;20401;-78
2020/12/23 00:21:33;;;;;;;1.60;1.50;;;12.30;99.90;;;;;;5099028;28;20256;-81
2020/12/23 00:23:59;;;;;;;2.27;2.07;;;12.50;99.90;;;;;;5109794;28;20372;-81
2020/12/23 00:26:25;;;;;;;2.73;1.60;;;12.50;99.90;;;;;;5108787;28;20517;-79
2020/12/23 00:28:50;;;;;;;1.80;1.60;;;12.50;99.90;;;;;;5088950;28;20170;-80
2020/12/23 00:31:16;;;;;;;4.50;1.50;;;12.50;99.90;;;;;;5106701;28;20185;-81
2020/12/23 00:33:43;;;;;;;2.13;1.80;;;12.60;99.90;;;;;;5106542;28;20226;-81
2020/12/23 00:36:13;;;;;;;1.70;1.60;;;12.50;99.90;;;;;;5106178;28;20175;-80
2020/12/23 00:38:39;;;;;;;1.57;1.47;;;12.60;99.90;;;;;;5106831;28;20388;-81
2020/12/23 00:41:09;;;;;;;1.60;1.50;;;12.50;99.90;;;;;;5106990;28;20854;-81
2020/12/23 00:43:35;;;;;;;1.53;1.43;;;12.60;99.90;;;;;;5107336;28;20163;-80
2020/12/23 00:46:01;;;;;;;3.47;1.97;;;12.60;99.90;;;;;;5088395;28;20392;-80
2020/12/23 00:48:30;;;;;;;1.60;1.50;;;12.60;99.90;;;;;;5105966;28;20473;-80
2020/12/23 00:50:56;;;;;;;1.70;1.60;;;12.60;99.90;;;;;;5108291;28;20355;-80
2020/12/23 00:53:22;;;;;;;2.10;1.70;;;12.50;99.90;;;;;;5107813;28;20491;-80
2020/12/23 00:55:50;;;;;;;1.70;1.60;;;12.50;99.90;;;;;;5108415;28;20170;-80
2020/12/23 00:58:16;;;;;;;1.40;1.30;;;12.50;99.90;;;;;;5106850;28;20167;-81
2020/12/23 01:00:41;;;;;;;3.83;1.90;;;12.60;99.90;;;;;;5107313;28;20389;-80
2020/12/23 01:03:07;;;;;;;1.83;1.73;;;12.60;99.90;;;;;;5107717;28;20170;-80
2020/12/23 01:05:33;;;;;;;2.60;1.53;;;12.50;99.90;;;;;;5107342;28;20170;-81
2020/12/23 01:07:59;;;;;;;1.80;1.70;;;12.40;99.90;;;;;;5107182;28;20194;-80
2020/12/23 01:10:24;;;;;;;4.23;1.27;;;12.50;99.90;;;;;;5107354;28;20163;-81
2020/12/23 01:12:50;;;;;;;1.47;1.30;;;12.40;99.90;;;;;;5107414;28;20155;-81
2020/12/23 01:15:16;;;;;;;1.73;1.40;;;12.40;99.90;;;;;;5107643;28;20159;-80
2020/12/23 01:17:42;;;;;;;2.30;2.10;;;12.40;99.90;;;;;;5107507;28;20166;-81
2020/12/23 01:20:08;;;;;;;4.53;1.73;;;12.50;99.90;;;;;;5106553;28;20230;-80
2020/12/23 01:22:35;;;;;;;1.70;1.60;;;12.60;99.90;;;;;;5106974;28;20159;-81
2020/12/23 01:25:00;;;;;;;1.90;1.70;;;12.60;99.90;;;;;;5107427;28;20159;-80
2020/12/23 01:27:27;;;;;;;1.50;1.40;;;12.60;99.90;;;;;;5107785;28;20425;-80
2020/12/23 01:29:53;;;;;;;1.50;1.40;;;12.60;99.90;;;;;;5107365;28;20178;-81
2020/12/23 01:32:19;;;;;;;1.60;1.50;;;12.60;99.90;;;;;;5107933;28;20849;-81
2020/12/23 01:34:44;;;;;;;1.60;1.50;;;12.50;99.90;;;;;;5107628;28;20155;-80
2020/12/23 01:37:10;;;;;;;1.50;1.40;;;12.50;99.90;;;;;;5108123;28;20170;-81
2020/12/23 01:39:36;;;;;;;1.70;1.30;;;12.60;99.90;;;;;;5089744;28;20231;-81
2020/12/23 01:42:02;;;;;;;2.03;1.93;;;12.70;99.90;;;;;;5107717;28;20155;-81
2020/12/23 01:44:27;;;;;;;1.63;1.53;;;12.60;99.90;;;;;;5108282;28;20166;-81
2020/12/23 01:46:53;;;;;;;1.60;1.50;;;12.60;99.90;;;;;;5107846;28;20228;-81
2020/12/23 01:49:20;;;;;;;3.53;1.53;;;12.70;99.90;;;;;;5108006;28;20163;-80
2020/12/23 01:51:46;;;;;;;1.50;1.40;;;12.70;99.90;;;;;;5110516;28;20358;-81
2020/12/23 01:54:13;;;;;;;1.73;1.47;;;12.80;99.90;;;;;;5110105;28;20374;-81
2020/12/23 01:56:43;;;;;;;1.87;1.60;;;12.80;99.90;;;;;;5110048;28;20360;-81
2020/12/23 01:59:09;;;;;;;2.90;1.80;;;12.70;99.90;;;;;;5109925;28;20379;-80
2020/12/23 02:01:42;;;;;;;1.63;1.53;;;12.70;99.90;;;;;;5109705;28;20428;-80
2020/12/23 02:04:08;;;;;;;1.70;1.60;;;12.70;99.90;;;;;;5109605;28;20469;-81
2020/12/23 02:06:34;;;;;;;1.60;1.50;;;12.60;99.90;;;;;;5109021;28;20449;-80
2020/12/23 02:09:03;;;;;;;1.90;1.80;;;12.60;99.90;;;;;;5109761;28;20174;-81
2020/12/23 02:11:30;;;;;;;5.20;1.83;;;12.70;99.90;;;;;;5110308;28;20416;-81
2020/12/23 02:13:55;;;;;;;1.63;1.53;;;12.70;99.90;;;;;;5110323;28;20800;-81
2020/12/23 02:16:21;;;;;;;1.63;1.53;;;12.60;99.90;;;;;;5111185;28;20393;-81
2020/12/23 02:18:47;;;;;;;2.00;1.77;;;12.60;99.90;;;;;;5112026;28;20165;-80
2020/12/23 02:21:15;;;;;;;1.70;1.60;;;12.70;99.90;;;;;;5111037;28;20222;-80
2020/12/23 02:23:41;;;;;;;1.37;1.27;;;12.60;99.90;;;;;;5112106;28;20166;-80
2020/12/23 02:26:08;;;;;;;2.00;1.90;;;12.70;99.90;;;;;;5112310;28;20356;-81
2020/12/23 02:28:33;;;;;;;2.80;2.00;;;12.70;99.90;;;;;;5094339;28;20159;-81
2020/12/23 02:31:01;;;;;;;1.73;1.63;;;12.80;99.90;;;;;;5113789;28;20368;-81
2020/12/23 02:33:27;;;;;;;2.13;1.77;;;12.80;99.90;;;;;;5116956;28;20166;-80
2020/12/23 02:35:53;;;;;;;5.63;1.90;;;12.80;99.90;;;;;;5116199;28;20389;-80
2020/12/23 02:38:19;;;;;;;1.50;1.40;;;12.80;99.90;;;;;;5116016;28;20584;-80
2020/12/23 02:40:45;;;;;;;1.73;1.60;;;12.90;99.90;;;;;;5116921;28;20393;-81
2020/12/23 02:43:11;;;;;;;9.80;2.43;;;13.00;99.90;;;;;;5116666;28;20194;-80
2020/12/23 02:45:37;;;;;;;1.70;1.60;;;13.00;99.90;;;;;;5114705;28;20166;-80
2020/12/23 02:48:02;;;;;;;2.37;1.80;;;13.00;99.90;;;;;;5109963;28;20787;-81
2020/12/23 02:50:28;;;;;;;1.70;1.60;;;13.00;99.90;;;;;;5110433;28;20154;-80
2020/12/23 02:52:54;;;;;;;1.77;1.60;;;13.00;99.90;;;;;;5110493;28;20163;-79
2020/12/23 02:55:20;;;;;;;1.60;1.50;;;13.00;99.90;;;;;;5110421;28;20695;-80
2020/12/23 02:57:46;;;;;;;1.70;1.60;;;13.00;99.90;;;;;;5113004;28;20162;-81
2020/12/23 03:00:11;;;;;;;1.73;1.63;;;13.00;99.90;;;;;;5109780;28;20663;-81
2020/12/23 03:02:37;;;;;;;1.60;1.50;;;13.00;99.90;;;;;;5108770;28;20163;-80
2020/12/23 03:05:03;;;;;;;1.60;1.50;;;13.10;99.90;;;;;;5108012;28;20162;-80
2020/12/23 03:07:29;;;;;;;1.67;1.57;;;13.00;99.90;;;;;;5109195;28;20221;-81
2020/12/23 03:09:55;;;;;;;1.60;1.50;;;13.00;99.90;;;;;;5090192;28;20389;-81
2020/12/23 03:12:21;;;;;;;1.60;1.50;;;13.00;99.90;;;;;;5108887;28;20159;-80
2020/12/23 03:14:47;;;;;;;1.77;1.67;;;13.00;99.90;;;;;;5108404;28;20475;-81
2020/12/23 03:17:12;;;;;;;1.87;1.70;;;12.90;99.90;;;;;;5108489;28;20174;-81
2020/12/23 03:19:38;;;;;;;2.20;1.50;;;12.90;99.90;;;;;;5107852;28;20228;-80
2020/12/23 03:22:04;;;;;;;1.57;1.47;;;13.10;99.90;;;;;;5108689;28;20159;-80
2020/12/23 03:24:30;;;;;;;1.80;1.70;;;13.00;99.90;;;;;;5108944;28;20316;-81
2020/12/23 03:26:56;;;;;;;1.30;1.20;;;12.90;99.90;;;;;;5109533;28;20197;-81
2020/12/23 03:29:21;;;;;;;1.50;1.40;;;13.00;99.90;;;;;;5110886;28;20166;-81
2020/12/23 03:31:47;;;;;;;1.57;1.47;;;13.00;99.90;;;;;;5110723;28;20569;-80
2020/12/23 03:34:13;;;;;;;2.13;1.60;;;13.00;99.90;;;;;;5110072;28;20166;-81
2020/12/23 03:36:39;;;;;;;1.40;1.30;;;12.90;99.90;;;;;;5111558;28;20641;-81
2020/12/23 03:39:07;;;;;;;1.77;1.50;;;12.90;99.90;;;;;;5106534;28;20163;-79
2020/12/23 03:41:34;;;;;;;1.57;1.47;;;12.90;99.90;;;;;;5102945;28;20197;-79
2020/12/23 03:44:00;;;;;;;1.40;1.30;;;12.80;99.90;;;;;;5101164;28;20726;-79
2020/12/23 03:46:26;;;;;;;1.70;1.60;;;12.80;99.90;;;;;;5103108;28;20410;-78
2020/12/23 03:48:51;;;;;;;1.50;1.40;;;12.80;99.90;;;;;;5103223;28;20371;-79
2020/12/23 03:51:17;;;;;;;1.70;1.60;;;12.90;99.90;;;;;;5103288;28;20174;-81
2020/12/23 03:53:43;;;;;;;2.07;1.80;;;12.90;99.90;;;;;;5108512;28;20165;-81
2020/12/23 03:56:09;;;;;;;1.30;1.20;;;12.90;99.90;;;;;;5107746;28;20166;-79
2020/12/23 03:58:35;;;;;;;1.47;1.37;;;13.00;99.90;;;;;;5107093;28;20159;-80
2020/12/23 04:01:01;;;;;;;2.17;1.60;;;13.00;99.90;;;;;;5108873;28;20167;-80
2020/12/23 04:03:27;;;;;;;1.20;1.10;;;12.90;99.90;;;;;;5108944;28;20436;-80
2020/12/23 04:05:52;;;;;;;2.33;1.30;;;12.90;99.90;;;;;;5088882;28;20170;-80
2020/12/23 04:08:19;;;;;;;1.80;1.70;;;12.80;99.90;;;;;;5107215;28;20236;-80
2020/12/23 04:10:45;;;;;;;1.60;1.50;;;12.90;99.90;;;;;;5089027;28;20223;-80
2020/12/23 04:13:11;;;;;;;1.50;1.40;;;12.90;99.90;;;;;;5086407;28;20444;-80
2020/12/23 04:15:37;;;;;;;1.33;1.23;;;12.90;99.90;;;;;;5089333;28;20374;-81
2020/12/23 04:18:03;;;;;;;1.43;1.33;;;12.90;99.90;;;;;;5088863;28;20167;-79
2020/12/23 04:20:29;;;;;;;7.83;1.73;;;12.90;99.90;;;;;;5107529;28;20226;-80
2020/12/23 04:22:55;;;;;;;2.60;1.93;;;12.90;99.90;;;;;;5108861;28;20163;-79
2020/12/23 04:25:20;;;;;;;1.40;1.30;;;12.80;99.90;;;;;;5072756;28;20193;-80
2020/12/23 04:27:47;;;;;;;1.40;1.30;;;12.70;99.90;;;;;;5108626;28;20202;-80
2020/12/23 04:30:13;;;;;;;1.40;1.30;;;12.70;99.90;;;;;;5108782;28;20158;-79
2020/12/23 04:32:39;;;;;;;1.10;1.00;;;12.60;99.90;;;;;;5109094;28;20872;-79
2020/12/23 04:35:06;;;;;;;1.30;1.20;;;12.50;99.90;;;;;;5109357;28;20166;-79
2020/12/23 04:37:34;;;;;;;1.10;1.00;;;12.50;99.90;;;;;;5108669;28;20587;-80
2020/12/23 04:40:01;;;;;;;1.30;1.20;;;12.40;99.90;;;;;;5108958;28;20371;-80
2020/12/23 04:42:28;;;;;;;2.40;1.50;;;12.40;99.90;;;;;;5109489;28;20375;-80
2020/12/23 04:44:55;;;;;;;4.70;1.43;;;12.30;99.90;;;;;;5108928;28;20700;-79
2020/12/23 04:47:25;;;;;;;1.30;1.00;;;12.30;99.90;;;;;;5107111;28;20439;-80
2020/12/23 04:49:54;;;;;;;1.20;1.00;;;12.30;99.90;;;;;;5092057;28;20401;-80
2020/12/23 04:52:29;;;;;;;1.90;1.37;;;12.20;99.90;;;;;;5109728;28;20484;-79
2020/12/23 04:54:55;;;;;;;1.53;1.30;;;12.10;99.90;;;;;;5109546;28;20519;-80
2020/12/23 04:57:22;;;;;;;1.80;1.20;;;12.10;99.90;;;;;;5110070;28;20367;-79
2020/12/23 04:59:48;;;;;;;2.27;1.20;;;12.00;99.90;;;;;;5111107;28;20401;-79
2020/12/23 05:02:14;;;;;;;1.73;1.20;;;12.00;99.90;;;;;;5092376;28;20399;-79
2020/12/23 05:04:40;;;;;;;1.00;1.00;;;12.00;99.90;;;;;;5112013;28;20383;-78
2020/12/23 05:07:06;;;;;;;6.43;1.53;;;12.00;99.90;;;;;;5116067;28;20195;-78
2020/12/23 05:09:33;;;;;;;2.57;1.30;;;11.80;99.90;;;;;;5116326;28;20360;-78
2020/12/23 05:12:01;;;;;;;4.03;1.70;;;11.90;99.90;;;;;;5115638;28;20359;-79
2020/12/23 05:14:28;;;;;;;1.20;1.10;;;11.80;99.90;;;;;;5108244;28;20471;-80
2020/12/23 05:16:53;;;;;;;8.00;2.13;;;11.80;99.90;;;;;;5090558;28;20371;-80
2020/12/23 05:19:20;;;;;;;1.00;1.00;;;11.70;99.90;;;;;;5107385;28;20447;-80
2020/12/23 05:21:46;;;;;;;2.67;1.73;;;11.70;99.90;;;;;;5107650;28;20311;-80
2020/12/23 05:24:13;;;;;;;1.20;1.10;;;11.60;99.90;;;;;;5107446;28;20371;-80
2020/12/23 05:26:42;;;;;;;1.63;1.30;;;11.60;99.90;;;;;;5107593;28;20419;-79
2020/12/23 05:29:10;;;;;;;1.73;1.20;;;11.60;99.90;;;;;;5107560;28;20423;-79
2020/12/23 05:31:37;;;;;;;2.17;1.77;;;11.60;99.90;;;;;;5107291;28;20772;-79
2020/12/23 05:34:04;;;;;;;1.70;1.60;;;11.60;99.90;;;;;;5088773;28;20421;-80
2020/12/23 05:36:32;;;;;;;1.73;1.57;;;11.60;99.90;;;;;;5107004;28;20408;-80
2020/12/23 05:38:59;;;;;;;1.30;1.20;;;11.60;99.90;;;;;;5107122;28;20435;-80
2020/12/23 05:41:26;;;;;;;2.63;1.70;;;11.50;99.90;;;;;;5105549;28;20364;-79
2020/12/23 05:43:52;;;;;;;1.80;1.70;;;11.50;99.90;;;;;;5106840;28;20410;-80
2020/12/23 05:46:18;;;;;;;1.73;1.60;;;11.50;99.90;;;;;;5104768;28;20367;-80
2020/12/23 05:48:44;;;;;;;2.00;1.80;;;11.50;99.90;;;;;;5104794;28;20469;-79
2020/12/23 05:51:10;;;;;;;2.27;1.60;;;11.50;99.90;;;;;;5104290;28;20373;-80
2020/12/23 05:53:38;;;;;;;3.80;2.60;;;11.50;99.90;;;;;;5055132;28;20436;-79
2020/12/23 05:56:05;;;;;;;1.60;1.50;;;11.30;99.90;;;;;;5101763;28;20388;-80
2020/12/23 05:58:33;;;;;;;1.70;1.60;;;11.30;99.90;;;;;;5068125;28;20400;-80
2020/12/23 06:01:00;;;;;;;1.40;1.30;;;11.40;99.90;;;;;;5073489;28;20395;-80
2020/12/23 06:04:01;;;;;;;2.00;1.90;;;11.30;99.90;;;;;;5106248;28;20533;-80
2020/12/23 06:06:29;;;;;;;2.00;1.80;;;11.30;99.90;;;;;;5097639;28;20438;-79
2020/12/23 06:08:56;;;;;;;2.63;1.57;;;11.30;99.90;;;;;;5085229;28;20503;-80
2020/12/23 06:11:29;;;;;;;5.27;1.90;;;11.30;99.90;;;;;;5086542;28;20876;-80
2020/12/23 06:14:14;;;;;;;2.60;2.40;;;11.30;99.90;;;;;;5085870;28;20373;-79
2020/12/23 06:16:43;;;;;;;2.07;1.93;;;11.30;99.90;;;;;;5093643;28;20439;-80
2020/12/23 06:19:11;;;;;;;2.50;2.30;;;11.30;99.90;;;;;;5087054;28;20400;-80
2020/12/23 06:21:38;;;;;;;2.27;2.10;;;11.30;99.90;;;;;;5104394;28;20495;-79
2020/12/23 06:24:10;;;;;;;3.50;3.30;;;11.30;99.90;;;;;;5086896;28;20407;-79
2020/12/23 06:26:38;;;;;;;2.30;2.20;;;11.30;99.90;;;;;;5082013;28;20468;-80
2020/12/23 06:29:09;;;;;;;4.20;2.80;;;11.20;99.90;;;;;;5084939;28;20451;-78
2020/12/23 06:31:46;;;;;;;2.93;2.50;;;11.30;99.90;;;;;;5091508;28;20402;-80
2020/12/23 06:34:15;;;;;;;3.90;2.27;;;11.30;99.90;;;;;;5104377;28;20363;-80
2020/12/23 06:36:45;;;;;;;3.07;2.87;;;11.30;99.90;;;;;;5085155;28;20444;-80
2020/12/23 06:39:27;;;;;;;2.50;2.27;;;11.20;99.90;;;;;;5096463;28;20408;-80
2020/12/23 06:42:16;;;;;;;3.43;2.27;;;11.20;99.90;;;;;;5085656;28;20420;-80
2020/12/23 06:45:04;;;;;;;3.37;2.20;;;11.20;99.90;;;;;;5090972;28;20376;-80
2020/12/23 06:47:32;;;;;;;2.73;2.60;;;11.20;99.90;;;;;;5063028;28;20432;-80
2020/12/23 06:50:20;;;;;;;2.67;2.47;;;11.20;99.90;;;;;;5099924;28;20387;-80
2020/12/23 06:52:47;;;;;;;3.73;3.43;;;11.30;99.90;;;;;;5105977;28;20376;-79
2020/12/23 06:55:15;;;;;;;4.07;3.77;;;11.30;99.90;;;;;;5072627;28;20388;-80
2020/12/23 06:57:49;;;;;;;2.43;2.33;;;11.20;99.90;;;;;;5068067;28;20388;-80
2020/12/23 07:00:35;;;;;;;2.73;2.53;;;11.10;99.90;;;;;;5088853;28;20409;-80
2020/12/23 07:03:04;;;;;;;2.43;2.23;;;11.10;99.90;;;;;;5082036;28;20463;-80
2020/12/23 07:05:35;;;;;;;2.60;2.40;;;11.20;99.90;;;;;;5082380;28;20771;-80
2020/12/23 07:08:04;;;;;;;3.70;2.63;;;11.20;99.90;;;;;;5083838;28;20495;-80
2020/12/23 07:10:33;;;;;;;3.77;3.47;;;11.20;99.90;;;;;;5097241;28;20424;-80
2020/12/23 07:13:16;;;;;;;5.90;3.47;;;11.20;99.90;;;;;;5085852;28;20442;-79
2020/12/23 07:15:54;;;;;;;3.47;3.07;;;11.20;99.90;;;;;;5082538;28;20455;-80
2020/12/23 07:18:27;;;;;;;2.83;2.63;;;11.10;99.90;;;;;;5112456;28;20497;-80
2020/12/23 07:21:02;;;;;;;2.83;2.63;;;11.00;99.90;;;;;;5124176;28;20465;-80
2020/12/23 07:23:30;;;;;;;3.87;3.50;;;11.00;99.90;;;;;;5108877;28;20415;-80
2020/12/23 07:26:00;;;;;;;3.57;3.37;;;11.00;99.90;;;;;;5106661;28;20418;-80
2020/12/23 07:28:31;;;;;;;2.53;2.33;;;11.10;99.90;;;;;;5107287;28;20449;-80
2020/12/23 07:30:58;;;;;;;4.30;3.40;;;11.10;99.90;;;;;;5107313;28;20387;-80
2020/12/23 07:33:25;;;;;;;4.10;3.70;;;11.10;99.90;;;;;;5073945;28;20403;-80
2020/12/23 07:35:54;;;;;;;3.43;3.13;;;11.10;99.90;;;;;;5106405;28;20492;-80
2020/12/23 07:38:22;;;;;;;4.27;3.87;;;11.00;99.90;;;;;;5112353;28;20980;-78
2020/12/23 07:40:48;;;;;;;5.10;3.87;;;11.00;99.90;;;;;;5082550;28;20402;-80
2020/12/23 07:43:15;;;;;;;3.73;3.43;;;11.00;99.90;;;;;;5102417;28;20456;-80
2020/12/23 07:45:43;;;;;;;3.60;3.33;;;11.00;99.90;;;;;;5101884;28;20449;-79
2020/12/23 07:48:11;;;;;;;3.03;2.83;;;11.10;99.90;;;;;;5109287;28;20573;-78
2020/12/23 07:50:40;;;;;;;4.33;3.97;;;11.00;99.90;;;;;;5102009;28;20406;-80
2020/12/23 07:53:16;;;;;;;3.37;3.10;;;11.00;99.90;;;;;;5091918;28;20406;-79
2020/12/23 07:55:45;;;;;;;7.20;4.00;;;10.90;99.90;;;;;;5091983;28;20415;-80
2020/12/23 07:58:12;;;;;;;3.93;3.70;;;11.00;99.90;;;;;;5097507;28;20907;-81
2020/12/23 08:00:39;;;;;;;13.43;4.37;;;11.10;99.90;;;;;;5104999;28;20429;-80
2020/12/23 08:03:07;;;;;;;3.50;3.20;;;11.00;99.90;;;;;;5105610;28;20387;-81
2020/12/23 08:05:34;;;;;;;4.40;4.10;;;11.00;99.90;;;;;;5073713;28;20441;-81
2020/12/23 08:08:00;;;;;;;4.40;4.10;;;11.10;99.90;;;;;;5097748;28;20439;-81
2020/12/23 08:10:26;;;;;;;5.03;3.60;;;11.20;99.90;;;;;;5111700;28;20406;-81
2020/12/23 08:12:59;;;;;;;4.53;4.13;;;11.10;99.90;;;;;;5085548;28;20175;-80
2020/12/23 08:15:26;;;;;;;4.77;4.37;;;11.10;99.90;;;;;;5106245;28;20388;-81
2020/12/23 08:18:05;;;;;;;4.57;4.17;;;11.00;99.90;;;;;;5099005;28;20504;-81
2020/12/23 08:20:33;;;;;;;3.67;3.37;;;11.10;99.90;;;;;;5106997;28;20510;-80
2020/12/23 08:23:00;;;;;;;20.37;4.90;;;11.20;99.90;;;;;;5089499;28;20413;-81
2020/12/23 08:25:28;;;;;;;3.73;3.43;;;10.90;99.90;;;;;;5083795;28;20476;-80
2020/12/23 08:27:56;;;;;;;4.23;3.50;;;11.10;99.90;;;;;;5100675;28;20424;-81
2020/12/23 08:30:25;;;;;;;4.37;3.97;;;11.10;99.90;;;;;;5112550;28;20411;-80
2020/12/23 08:33:15;;;;;;;4.40;3.90;;;11.10;99.90;;;;;;5104065;28;20403;-81
2020/12/23 08:35:43;;;;;;;3.20;2.90;;;11.10;99.90;;;;;;5097941;28;20433;-79
2020/12/23 08:38:25;;;;;;;4.40;3.40;;;11.10;99.90;;;;;;5083327;28;20802;-81
2020/12/23 08:40:54;;;;;;;4.67;4.07;;;11.00;99.90;;;;;;5078883;28;20437;-79
2020/12/23 08:43:25;;;;;;;4.00;3.70;;;11.00;99.90;;;;;;5099525;28;20403;-80
2020/12/23 08:45:54;;;;;;;5.63;3.57;;;11.10;99.90;;;;;;5068866;28;20410;-80
2020/12/23 08:48:22;;;;;;;3.83;3.53;;;11.10;99.90;;;;;;5102737;28;20426;-79
2020/12/23 08:51:04;;;;;;;6.03;4.43;;;11.20;99.90;;;;;;5096563;28;20391;-80
2020/12/23 08:53:36;;;;;;;3.77;3.30;;;11.10;99.90;;;;;;5106043;28;20396;-80
2020/12/23 08:56:21;;;;;;;4.57;3.80;;;11.10;99.90;;;;;;5097868;28;20531;-80
2020/12/23 08:58:56;;;;;;;4.57;4.27;;;11.20;99.90;;;;;;5105459;28;20440;-80
2020/12/23 09:01:24;;;;;;;16.13;4.47;;;11.20;99.90;;;;;;5100666;28;20482;-80
2020/12/23 09:03:58;;;;;;;4.53;3.60;;;11.20;99.90;;;;;;5099172;28;20877;-81
2020/12/23 09:06:24;;;;;;;3.77;3.47;;;11.20;99.90;;;;;;5098377;28;20402;-80
2020/12/23 09:08:50;;;;;;;3.37;3.07;;;11.30;99.90;;;;;;5101706;28;20410;-80
2020/12/23 09:11:16;;;;;;;4.10;3.57;;;11.20;99.90;;;;;;5078660;28;20643;-80
2020/12/23 09:13:42;;;;;;;4.83;3.23;;;11.30;99.90;;;;;;5106528;28;20196;-81
2020/12/23 09:16:07;;;;;;;5.13;4.70;;;11.30;99.90;;;;;;5096927;28;20166;-80
2020/12/23 09:18:33;;;;;;;3.37;3.10;;;11.30;99.90;;;;;;5100894;28;20182;-79
2020/12/23 09:21:01;;;;;;;4.67;4.27;;;11.30;99.90;;;;;;5095680;28;20226;-80
2020/12/23 09:23:27;;;;;;;4.37;4.03;;;11.30;99.90;;;;;;5099950;28;20183;-80
2020/12/23 09:25:56;;;;;;;3.80;3.60;;;11.30;99.90;;;;;;5095326;28;20546;-81
2020/12/23 09:28:26;;;;;;;7.37;4.30;;;11.40;99.90;;;;;;5098002;28;20436;-80
2020/12/23 09:30:59;;;;;;;4.07;3.70;;;11.40;99.90;;;;;;5103163;28;20470;-79
2020/12/23 09:33:25;;;;;;;2.77;2.57;;;11.40;99.90;;;;;;5101526;28;20528;-80
2020/12/23 09:36:04;;;;;;;3.03;2.60;;;11.30;99.90;;;;;;5101441;28;20402;-78
2020/12/23 09:38:34;;;;;;;3.63;3.33;;;11.40;99.90;;;;;;5100015;28;20482;-80
2020/12/23 09:41:05;;;;;;;2.93;2.40;;;11.40;99.90;;;;;;5086223;28;20403;-81
2020/12/23 09:43:33;;;;;;;2.70;2.50;;;11.40;99.90;;;;;;5083300;28;20420;-79
2020/12/23 09:46:06;;;;;;;2.40;2.20;;;11.40;99.90;;;;;;5088874;28;20409;-80
2020/12/23 09:48:32;;;;;;;2.47;2.30;;;11.40;99.90;;;;;;5088341;28;20435;-80
2020/12/23 09:50:58;;;;;;;2.67;2.47;;;11.40;99.90;;;;;;5106271;28;20409;-80
2020/12/23 09:53:26;;;;;;;3.90;2.13;;;11.40;99.90;;;;;;5097903;28;20494;-81
2020/12/23 09:55:52;;;;;;;3.50;2.00;;;11.40;99.90;;;;;;5083263;28;20375;-80
2020/12/23 09:58:36;;;;;;;3.70;2.23;;;11.40;99.90;;;;;;5083320;28;20409;-78
2020/12/23 10:01:01;;;;;;;3.57;2.80;;;11.40;99.90;;;;;;5088869;28;20359;-79
2020/12/23 10:03:27;;;;;;;2.90;2.50;;;11.40;99.90;;;;;;5105547;28;20394;-79
2020/12/23 10:05:53;;;;;;;2.40;2.20;;;11.40;99.90;;;;;;5097072;28;20174;-80
2020/12/23 10:08:19;;;;;;;5.00;2.00;;;11.40;99.90;;;;;;5092138;28;20254;-80
2020/12/23 10:10:45;;;;;;;6.00;2.40;;;11.40;99.90;;;;;;5103572;28;20191;-80
2020/12/23 10:13:10;;;;;;;2.93;2.63;;;11.40;99.90;;;;;;5094413;28;20179;-80
2020/12/23 10:15:36;;;;;;;2.63;2.37;;;11.30;99.90;;;;;;5104701;28;20238;-79
2020/12/23 10:18:02;;;;;;;2.60;2.30;;;11.40;99.90;;;;;;5089375;28;20512;-79
2020/12/23 10:20:28;;;;;;;2.50;1.87;;;11.40;99.90;;;;;;5101463;28;20230;-80
2020/12/23 10:22:53;;;;;;;2.20;1.87;;;11.50;99.90;;;;;;5088904;28;20189;-78
2020/12/23 10:25:19;;;;;;;3.23;2.93;;;11.40;99.90;;;;;;5080555;28;20171;-79
2020/12/23 10:27:45;;;;;;;4.90;3.67;;;11.30;99.90;;;;;;5101721;28;20198;-79
2020/12/23 10:30:11;;;;;;;5.57;3.40;;;11.40;99.90;;;;;;5082315;28;20214;-80
2020/12/23 10:32:38;;;;;;;2.00;1.80;;;11.40;99.90;;;;;;5095740;28;20224;-80
2020/12/23 10:35:04;;;;;;;2.23;2.03;;;11.30;99.90;;;;;;5093751;28;20171;-79
2020/12/23 10:37:30;;;;;;;2.20;2.00;;;11.30;99.90;;;;;;5078604;28;20410;-81
2020/12/23 10:39:57;;;;;;;3.63;2.20;;;11.30;99.90;;;;;;5104986;28;20422;-81
2020/12/23 10:42:26;;;;;;;2.50;2.30;;;11.30;99.90;;;;;;5107775;28;20704;-81
2020/12/23 10:44:53;;;;;;;1.93;1.63;;;11.30;99.90;;;;;;5102726;28;20478;-83
2020/12/23 10:47:19;;;;;;;3.83;2.67;;;11.20;99.90;;;;;;5109921;28;20466;-83
2020/12/23 10:49:45;;;;;;;2.57;2.37;;;11.20;99.90;;;;;;5100628;28;20383;-83
2020/12/23 10:52:11;;;;;;;3.37;2.43;;;11.20;99.90;;;;;;5109846;28;20478;-83
2020/12/23 10:54:36;;;;;;;2.23;2.00;;;11.20;99.90;;;;;;5106481;28;20173;-83
2020/12/23 10:57:02;;;;;;;2.50;2.23;;;11.20;99.90;;;;;;5099281;28;20171;-83
2020/12/23 10:59:28;;;;;;;2.60;2.40;;;11.20;99.90;;;;;;5108069;28;20538;-84
2020/12/23 11:01:55;;;;;;;2.47;2.27;;;11.20;99.90;;;;;;5103929;28;20238;-83
2020/12/23 11:04:22;;;;;;;2.60;2.07;;;11.20;99.90;;;;;;5103812;28;20231;-82
2020/12/23 11:06:49;;;;;;;3.10;2.33;;;11.10;99.90;;;;;;5109671;28;20430;-83
2020/12/23 11:09:15;;;;;;;2.87;2.40;;;11.10;99.90;;;;;;5081012;28;20754;-82
2020/12/23 11:11:40;;;;;;;3.20;2.60;;;11.10;99.90;;;;;;5084172;28;20389;-83
2020/12/23 11:14:06;;;;;;;2.07;1.90;;;11.10;99.90;;;;;;5122048;28;20194;-83
2020/12/23 11:16:32;;;;;;;3.10;2.67;;;11.20;99.90;;;;;;5095374;28;20174;-83
2020/12/23 11:18:58;;;;;;;6.73;2.33;;;11.20;99.90;;;;;;5086288;28;20183;-83
2020/12/23 11:21:23;;;;;;;2.17;2.03;;;11.20;99.90;;;;;;5081532;28;20228;-83
2020/12/23 11:23:49;;;;;;;3.53;2.07;;;11.20;99.90;;;;;;5110518;28;20648;-82
2020/12/23 11:26:17;;;;;;;2.70;2.50;;;11.30;99.90;;;;;;5105983;28;20188;-83
2020/12/23 11:28:43;;;;;;;2.10;2.00;;;11.40;99.90;;;;;;5103489;28;20735;-83
2020/12/23 11:31:09;;;;;;;1.80;1.60;;;11.30;99.90;;;;;;5101300;28;20403;-82
2020/12/23 11:33:36;;;;;;;1.40;1.30;;;11.20;99.90;;;;;;5107544;28;20182;-83
2020/12/23 11:36:02;;;;;;;3.60;1.77;;;11.30;99.90;;;;;;5081609;28;20419;-82
2020/12/23 11:38:28;;;;;;;1.90;1.80;;;11.30;99.90;;;;;;5107840;28;20413;-83
2020/12/23 11:40:54;;;;;;;1.73;1.50;;;11.30;99.90;;;;;;5104270;28;20875;-82
2020/12/23 11:43:19;;;;;;;3.57;1.50;;;11.30;99.90;;;;;;5097237;28;20193;-81
2020/12/23 11:45:45;;;;;;;1.50;1.40;;;11.40;99.90;;;;;;5099380;28;20638;-83
2020/12/23 11:48:11;;;;;;;2.20;2.00;;;11.40;99.90;;;;;;5106372;28;20658;-82
2020/12/23 11:50:37;;;;;;;1.57;1.47;;;11.30;99.90;;;;;;5104831;28;20251;-82
2020/12/23 11:53:03;;;;;;;1.53;1.43;;;11.40;99.90;;;;;;5097926;28;20181;-82
2020/12/23 11:55:29;;;;;;;2.30;2.10;;;11.40;99.90;;;;;;5087991;28;20196;-83
2020/12/23 11:57:55;;;;;;;2.30;2.10;;;11.40;99.90;;;;;;5081583;28;20458;-83
2020/12/23 12:00:20;;;;;;;2.90;1.90;;;11.50;99.90;;;;;;5099510;28;20623;-83
2020/12/23 12:02:46;;;;;;;2.50;2.30;;;11.50;99.90;;;;;;5096193;28;20174;-83
2020/12/23 12:05:13;;;;;;;1.93;1.83;;;11.50;99.90;;;;;;5096776;28;20206;-83
2020/12/23 12:07:39;;;;;;;1.90;1.70;;;11.50;99.90;;;;;;5076274;28;20226;-83
2020/12/23 12:10:06;;;;;;;2.37;2.17;;;11.50;99.90;;;;;;5106515;28;20885;-84
2020/12/23 12:12:33;;;;;;;5.03;2.37;;;11.50;99.90;;;;;;5099630;28;20395;-84
2020/12/23 12:14:59;;;;;;;3.93;2.70;;;11.60;99.90;;;;;;5097810;28;20383;-84
2020/12/23 12:17:26;;;;;;;2.10;2.00;;;11.60;99.90;;;;;;5095026;28;20379;-84
2020/12/23 12:19:52;;;;;;;2.93;2.73;;;11.70;99.90;;;;;;5111755;28;20646;-83
2020/12/23 12:22:18;;;;;;;2.83;2.60;;;11.70;99.90;;;;;;5123652;28;20367;-83
2020/12/23 12:24:44;;;;;;;3.13;2.83;;;11.80;99.90;;;;;;5123005;28;20701;-83
2020/12/23 12:27:09;;;;;;;3.27;2.87;;;11.80;99.90;;;;;;5122657;28;20217;-83
2020/12/23 12:29:37;;;;;;;3.60;3.30;;;11.80;99.90;;;;;;5121843;28;20533;-83
2020/12/23 12:32:04;;;;;;;2.47;2.27;;;11.90;99.90;;;;;;5124036;28;20162;-83
2020/12/23 12:34:32;;;;;;;2.67;2.47;;;11.80;99.90;;;;;;5122329;28;20440;-83
2020/12/23 12:36:58;;;;;;;5.90;2.83;;;11.80;99.90;;;;;;5122727;28;20955;-84
2020/12/23 12:39:24;;;;;;;2.87;2.33;;;11.80;99.90;;;;;;5090961;28;20536;-82
2020/12/23 12:41:50;;;;;;;3.17;2.87;;;11.80;99.90;;;;;;5105015;28;20400;-83
2020/12/23 12:44:16;;;;;;;2.93;2.50;;;11.90;99.90;;;;;;5122127;28;20366;-84
2020/12/23 12:46:42;;;;;;;2.03;1.93;;;11.80;99.90;;;;;;5118581;28;20162;-83
2020/12/23 12:49:08;;;;;;;2.93;2.73;;;11.70;99.90;;;;;;5069395;28;20382;-83